createdAt,value
2019-04-04T00:01:19.820Z,6.70
2019-04-04T00:03:48.368Z,7.00
2019-04-04T00:06:16.935Z,6.80
2019-04-04T00:08:45.477Z,7.30
2019-04-04T00:13:42.612Z,6.70
2019-04-04T00:16:11.232Z,6.70
2019-04-04T00:18:39.769Z,6.70
2019-04-04T00:21:08.347Z,6.50
2019-04-04T00:23:37.961Z,7.00
2019-04-04T00:26:07.159Z,6.90
2019-04-04T00:33:32.231Z,6.50
2019-04-04T00:36:02.665Z,7.10
2019-04-04T00:38:31.013Z,6.60
2019-04-04T00:45:56.045Z,6.60
2019-04-04T00:50:52.821Z,6.30
2019-04-04T00:53:21.392Z,6.30
2019-04-04T00:55:50.005Z,6.30
2019-04-04T00:58:18.910Z,6.20
2019-04-04T01:00:48.832Z,6.10
2019-04-04T01:03:17.428Z,6.20
2019-04-04T01:05:45.949Z,6.20
2019-04-04T01:08:14.486Z,6.30
2019-04-04T01:10:43.094Z,6.70
2019-04-04T01:13:11.662Z,6.20
2019-04-04T01:15:40.264Z,6.40
2019-04-04T01:18:08.834Z,6.40
2019-04-04T01:20:37.374Z,6.40
2019-04-04T01:23:05.950Z,6.80
2019-04-04T01:25:34.653Z,6.20
2019-04-04T01:28:03.221Z,6.40
2019-04-04T01:30:31.770Z,6.60
2019-04-04T01:33:00.342Z,6.20
2019-04-04T01:35:28.878Z,6.60
2019-04-04T01:37:58.261Z,6.40
2019-04-04T01:40:27.367Z,6.70
2019-04-04T01:42:56.101Z,6.30
2019-04-04T01:45:24.642Z,6.30
2019-04-04T01:47:53.214Z,6.50
2019-04-04T01:50:22.820Z,6.40
2019-04-04T01:52:51.926Z,6.60
2019-04-04T01:55:20.469Z,6.60
2019-04-04T01:57:49.045Z,6.60
2019-04-04T02:00:17.822Z,6.50
2019-04-04T02:02:46.391Z,6.60
2019-04-04T02:05:15.070Z,6.60
2019-04-04T02:07:43.648Z,6.50
2019-04-04T02:10:12.420Z,6.50
2019-04-04T02:12:40.981Z,6.90
2019-04-04T02:15:09.770Z,6.60
2019-04-04T02:17:38.343Z,6.30
2019-04-04T02:20:07.526Z,6.60
2019-04-04T02:22:36.136Z,6.60
2019-04-04T02:27:37.475Z,6.60
2019-04-04T02:30:05.852Z,6.50
2019-04-04T02:32:34.390Z,6.40
2019-04-04T02:35:03.108Z,6.70
2019-04-04T02:37:31.645Z,6.60
2019-04-04T02:40:00.220Z,6.50
2019-04-04T02:42:28.832Z,6.60
2019-04-04T02:44:57.479Z,6.80
2019-04-04T02:49:54.226Z,6.80
2019-04-04T02:54:51.141Z,6.60
2019-04-04T02:57:19.755Z,6.70
2019-04-04T03:02:16.739Z,6.90
2019-04-04T03:09:43.940Z,6.30
2019-04-04T03:12:12.660Z,6.50
2019-04-04T03:14:41.312Z,6.60
2019-04-04T03:17:09.854Z,6.70
2019-04-04T03:19:40.770Z,6.70
2019-04-04T03:22:08.643Z,7.10
2019-04-04T03:24:40.374Z,6.60
2019-04-04T03:27:07.475Z,6.50
2019-04-04T03:29:37.661Z,6.50
2019-04-04T03:39:34.257Z,6.70
2019-04-04T03:42:06.947Z,6.20
2019-04-04T03:44:33.074Z,6.60
2019-04-04T03:47:01.619Z,6.40
2019-04-04T03:49:30.158Z,6.30
2019-04-04T03:51:58.758Z,6.30
2019-04-04T03:54:27.975Z,6.30
2019-04-04T03:56:56.540Z,6.30
2019-04-04T03:59:25.087Z,6.30
2019-04-04T04:01:53.650Z,6.90
2019-04-04T04:04:22.191Z,6.90
2019-04-04T04:06:50.862Z,6.70
2019-04-04T04:11:47.672Z,6.10
2019-04-04T04:16:44.488Z,6.20
2019-04-04T04:19:13.098Z,6.70
2019-04-04T04:21:43.237Z,6.30
2019-04-04T04:24:11.895Z,6.30
2019-04-04T04:29:10.324Z,6.10
2019-04-04T04:31:38.901Z,6.00
2019-04-04T04:34:07.428Z,6.00
2019-04-04T04:36:36.016Z,6.20
2019-04-04T04:39:05.937Z,6.40
2019-04-04T04:44:05.609Z,6.80
2019-04-04T04:46:33.524Z,6.60
2019-04-04T04:49:03.433Z,7.00
2019-04-04T04:51:32.367Z,6.60
2019-04-04T04:54:00.907Z,6.20
2019-04-04T04:56:31.355Z,6.10
2019-04-04T04:58:59.669Z,6.10
2019-04-04T05:01:28.243Z,6.30
2019-04-04T05:06:25.845Z,6.40
2019-04-04T05:08:54.380Z,6.40
2019-04-04T05:11:22.987Z,6.20
2019-04-04T05:13:51.554Z,6.30
2019-04-04T05:16:20.122Z,6.20
2019-04-04T05:18:48.723Z,6.30
2019-04-04T05:26:16.302Z,6.40
2019-04-04T05:28:44.978Z,6.40
2019-04-04T05:31:13.523Z,6.40
2019-04-04T05:33:42.126Z,6.40
2019-04-04T05:36:10.690Z,6.10
2019-04-04T05:38:42.625Z,6.20
2019-04-04T05:46:06.841Z,6.00
2019-04-04T05:48:35.447Z,6.90
2019-04-04T05:51:04.059Z,6.50
2019-04-04T05:53:35.073Z,6.00
2019-04-04T05:56:06.146Z,6.30
2019-04-04T05:58:33.206Z,6.60
2019-04-04T06:01:02.510Z,6.20
2019-04-04T06:03:31.390Z,6.10
2019-04-04T06:06:01.352Z,5.90
2019-04-04T06:08:30.154Z,5.90
2019-04-04T06:10:58.770Z,6.10
2019-04-04T06:15:56.180Z,6.20
2019-04-04T06:18:24.786Z,6.30
2019-04-04T06:20:53.320Z,6.30
2019-04-04T06:23:23.109Z,6.00
2019-04-04T06:25:52.149Z,6.20
2019-04-04T06:28:20.729Z,6.80
2019-04-04T06:30:49.294Z,6.20
2019-04-04T06:35:47.853Z,6.60
2019-04-04T06:38:16.327Z,6.60
2019-04-04T06:40:44.942Z,7.10
2019-04-04T06:43:13.510Z,6.60
2019-04-04T06:45:42.057Z,6.60
2019-04-04T06:48:10.629Z,6.80
2019-04-04T06:55:39.930Z,6.80
2019-04-04T06:58:09.381Z,6.80
2019-04-04T07:00:37.713Z,6.90
2019-04-04T07:03:06.268Z,7.00
2019-04-04T07:05:37.744Z,7.30
2019-04-04T07:08:05.151Z,7.30
2019-04-04T07:10:33.801Z,7.40
2019-04-04T07:13:20.189Z,7.70
2019-04-04T07:15:32.574Z,7.40
2019-04-04T07:18:01.118Z,7.30
2019-04-04T07:20:29.694Z,7.60
2019-04-04T07:22:58.239Z,7.70
2019-04-04T07:25:26.809Z,7.90
2019-04-04T07:27:55.356Z,7.70
2019-04-04T07:30:23.958Z,7.60
2019-04-04T07:32:52.497Z,8.20
2019-04-04T07:35:21.235Z,8.00
2019-04-04T07:37:52.943Z,8.40
2019-04-04T07:40:20.332Z,8.60
2019-04-04T07:45:17.329Z,8.70
2019-04-04T07:47:47.507Z,9.30
2019-04-04T07:50:16.244Z,9.10
2019-04-04T07:52:44.812Z,9.60
2019-04-04T07:57:41.670Z,10.10
2019-04-04T08:00:11.318Z,10.30
2019-04-04T08:05:09.275Z,10.40
2019-04-04T08:07:37.819Z,10.50
2019-04-04T08:10:19.536Z,10.80
2019-04-04T08:12:37.197Z,11.20
2019-04-04T08:15:08.946Z,11.10
2019-04-04T08:17:37.491Z,11.60
2019-04-04T08:20:06.733Z,11.50
2019-04-04T08:22:35.425Z,11.90
2019-04-04T08:25:04.862Z,12.40
2019-04-04T08:27:33.410Z,11.90
2019-04-04T08:34:58.434Z,12.40
2019-04-04T08:37:26.982Z,12.80
2019-04-04T08:39:55.630Z,12.70
2019-04-04T08:42:24.243Z,12.70
2019-04-04T08:44:52.822Z,13.10
2019-04-04T08:47:21.370Z,13.40
2019-04-04T08:49:49.979Z,12.90
2019-04-04T08:52:20.755Z,13.20
2019-04-04T08:54:48.756Z,13.50
2019-04-04T08:57:17.335Z,13.90
2019-04-04T08:59:45.922Z,13.40
2019-04-04T09:02:14.618Z,13.70
2019-04-04T09:04:43.218Z,13.80
2019-04-04T09:07:11.786Z,13.40
2019-04-04T09:09:40.392Z,13.60
2019-04-04T09:12:09.002Z,13.60
2019-04-04T09:14:37.624Z,14.00
2019-04-04T09:17:06.291Z,13.80
2019-04-04T09:19:34.858Z,14.30
2019-04-04T09:22:03.501Z,14.70
2019-04-04T09:24:32.040Z,14.30
2019-04-04T09:27:00.689Z,14.70
2019-04-04T09:29:29.228Z,14.60
2019-04-04T09:31:57.800Z,15.00
2019-04-04T09:34:26.349Z,14.70
2019-04-04T09:36:54.924Z,15.20
2019-04-04T09:39:23.469Z,15.50
2019-04-04T09:41:52.049Z,15.60
2019-04-04T09:44:20.666Z,15.70
2019-04-04T09:46:49.177Z,15.80
2019-04-04T09:49:17.763Z,15.80
2019-04-04T09:51:46.288Z,15.70
2019-04-04T09:54:14.842Z,16.00
2019-04-04T09:56:43.415Z,15.90
2019-04-04T09:59:11.961Z,15.70
2019-04-04T10:01:40.538Z,16.20
2019-04-04T10:04:09.252Z,15.70
2019-04-04T10:06:37.851Z,16.20
2019-04-04T10:09:15.562Z,16.10
2019-04-04T10:11:37.485Z,16.00
2019-04-04T10:14:06.092Z,16.10
2019-04-04T10:16:34.701Z,15.90
2019-04-04T10:19:03.269Z,16.00
2019-04-04T10:24:01.003Z,15.70
2019-04-04T10:26:29.578Z,15.10
2019-04-04T10:28:58.193Z,14.90
2019-04-04T10:31:26.772Z,14.90
2019-04-04T10:33:55.312Z,14.60
2019-04-04T10:36:23.897Z,14.00
2019-04-04T10:38:52.449Z,13.80
2019-04-04T10:41:21.026Z,13.80
2019-04-04T10:43:49.636Z,13.80
2019-04-04T10:46:18.279Z,13.70
2019-04-04T10:48:46.851Z,13.60
2019-04-04T10:51:15.498Z,13.60
2019-04-04T10:53:44.069Z,14.00
2019-04-04T10:56:12.619Z,13.30
2019-04-04T11:01:09.413Z,13.60
2019-04-04T11:03:37.992Z,13.20
2019-04-04T11:06:06.614Z,13.10
2019-04-04T11:08:35.198Z,13.00
2019-04-04T11:16:01.863Z,13.30
2019-04-04T11:18:30.445Z,13.30
2019-04-04T11:20:59.024Z,13.40
2019-04-04T11:23:27.601Z,13.10
2019-04-04T11:25:56.153Z,13.10
2019-04-04T11:28:24.735Z,13.30
2019-04-04T11:30:53.348Z,13.60
2019-04-04T11:33:21.949Z,13.50
2019-04-04T11:38:18.770Z,13.30
2019-04-04T11:40:47.407Z,13.30
2019-04-04T11:43:15.920Z,13.50
2019-04-04T11:45:44.470Z,13.60
2019-04-04T11:50:41.282Z,13.30
2019-04-04T11:53:09.865Z,13.70
2019-04-04T11:55:38.414Z,14.10
2019-04-04T11:58:07.102Z,13.50
2019-04-04T12:00:37.362Z,13.30
2019-04-04T12:03:06.020Z,13.50
2019-04-04T12:05:34.614Z,13.30
2019-04-04T12:10:31.406Z,14.10
2019-04-04T12:12:59.958Z,13.70
2019-04-04T12:15:28.562Z,13.80
2019-04-04T12:17:57.109Z,13.60
2019-04-04T12:20:25.688Z,13.80
2019-04-04T12:22:54.238Z,14.00
2019-04-04T12:27:51.038Z,13.60
2019-04-04T12:30:20.779Z,14.10
2019-04-04T12:32:49.604Z,14.00
2019-04-04T12:35:18.186Z,14.10
2019-04-04T12:37:46.762Z,14.00
2019-04-04T12:42:45.500Z,14.00
2019-04-04T12:45:14.544Z,14.30
2019-04-04T12:50:11.698Z,14.80
2019-04-04T12:52:40.242Z,14.70
2019-04-04T12:55:09.162Z,14.70
2019-04-04T12:57:37.710Z,15.00
2019-04-04T13:00:08.797Z,15.30
2019-04-04T13:02:37.416Z,15.00
2019-04-04T13:05:08.537Z,15.50
2019-04-04T13:07:37.083Z,15.90
2019-04-04T13:10:11.902Z,16.00
2019-04-04T13:12:40.717Z,16.30
2019-04-04T13:15:09.925Z,16.20
2019-04-04T13:17:38.494Z,16.30
2019-04-04T13:20:07.610Z,16.50
2019-04-04T13:22:36.238Z,16.40
2019-04-04T13:25:09.866Z,16.30
2019-04-04T13:27:38.416Z,16.20
2019-04-04T13:30:09.766Z,16.40
2019-04-04T13:32:38.410Z,16.50
2019-04-04T13:35:07.422Z,16.40
2019-04-04T13:37:35.974Z,16.40
2019-04-04T13:40:06.203Z,16.00
2019-04-04T13:45:03.314Z,16.40
2019-04-04T13:47:31.922Z,15.90
2019-04-04T13:50:00.465Z,16.00
2019-04-04T13:52:29.045Z,15.90
2019-04-04T13:54:57.597Z,16.30
2019-04-04T13:57:26.213Z,16.40
2019-04-04T13:59:54.777Z,16.40
2019-04-04T14:04:54.719Z,16.30
2019-04-04T14:07:21.833Z,15.70
2019-04-04T14:09:50.451Z,15.90
2019-04-04T14:12:19.029Z,15.60
2019-04-04T14:14:47.614Z,15.50
2019-04-04T14:17:16.181Z,15.40
2019-04-04T14:19:44.733Z,15.50
2019-04-04T14:22:13.346Z,15.40
2019-04-04T14:24:41.901Z,15.50
2019-04-04T14:27:10.556Z,15.50
2019-04-04T14:29:39.102Z,15.20
2019-04-04T14:32:07.751Z,15.30
2019-04-04T14:34:36.299Z,15.10
2019-04-04T14:37:05.045Z,15.40
2019-04-04T14:39:33.589Z,15.40
2019-04-04T14:42:02.317Z,15.10
2019-04-04T14:44:30.971Z,15.10
2019-04-04T14:46:59.613Z,15.20
2019-04-04T14:49:28.096Z,14.70
2019-04-04T14:51:56.694Z,14.70
2019-04-04T14:54:27.051Z,14.60
2019-04-04T14:56:55.532Z,14.10
2019-04-04T14:59:24.081Z,13.90
2019-04-04T15:01:52.662Z,13.80
2019-04-04T15:04:21.237Z,13.60
2019-04-04T15:06:49.849Z,14.10
2019-04-04T15:09:18.496Z,14.20
2019-04-04T15:16:43.535Z,13.90
2019-04-04T15:19:12.110Z,13.80
2019-04-04T15:21:40.726Z,13.50
2019-04-04T15:24:09.300Z,13.20
2019-04-04T15:26:37.853Z,13.60
2019-04-04T15:29:06.436Z,13.00
2019-04-04T15:36:31.473Z,12.60
2019-04-04T15:39:00.058Z,12.10
2019-04-04T15:41:36.658Z,12.00
2019-04-04T15:43:58.854Z,12.10
2019-04-04T15:46:27.401Z,12.10
2019-04-04T15:48:56.011Z,12.00
2019-04-04T15:51:24.555Z,12.00
2019-04-04T15:53:53.130Z,11.60
2019-04-04T15:56:21.677Z,12.10
2019-04-04T15:58:50.258Z,11.10
2019-04-04T16:01:18.805Z,11.40
2019-04-04T16:03:47.387Z,11.30
2019-04-04T16:06:15.938Z,11.10
2019-04-04T16:08:44.523Z,11.00
2019-04-04T16:11:13.056Z,11.00
2019-04-04T16:18:38.137Z,10.90
2019-04-04T16:21:06.668Z,10.90
2019-04-04T16:23:35.322Z,10.90
2019-04-04T16:28:32.206Z,11.00
2019-04-04T16:31:00.775Z,10.60
2019-04-04T16:33:29.318Z,10.60
2019-04-04T16:35:57.903Z,10.40
2019-04-04T16:38:26.451Z,10.50
2019-04-04T16:40:55.058Z,10.40
2019-04-04T16:43:23.594Z,10.40
2019-04-04T16:48:20.389Z,10.40
2019-04-04T16:50:48.961Z,10.40
2019-04-04T16:53:17.511Z,10.40
2019-04-04T16:58:14.339Z,10.40
2019-04-04T17:03:11.818Z,10.10
2019-04-04T17:05:40.397Z,10.20
2019-04-04T17:08:08.946Z,10.10
2019-04-04T17:13:05.966Z,9.90
2019-04-04T17:18:02.881Z,9.80
2019-04-04T17:20:31.482Z,9.70
2019-04-04T17:23:00.017Z,9.60
2019-04-04T17:25:28.740Z,9.50
2019-04-04T17:30:27.552Z,9.50
2019-04-04T17:35:24.626Z,9.30
2019-04-04T17:37:53.507Z,9.30
2019-04-04T17:40:22.225Z,9.20
2019-04-04T17:42:50.800Z,9.30
2019-04-04T17:47:48.778Z,9.30
2019-04-04T17:50:19.357Z,9.30
2019-04-04T18:00:16.169Z,8.90
2019-04-04T18:05:13.301Z,9.00
2019-04-04T18:07:41.875Z,9.60
2019-04-04T18:15:10.429Z,9.50
2019-04-04T18:17:39.099Z,9.40
2019-04-04T18:25:07.173Z,8.80
2019-04-04T18:27:35.818Z,8.80
2019-04-04T18:30:07.561Z,8.70
2019-04-04T18:32:36.230Z,8.70
2019-04-04T18:35:06.224Z,8.70
2019-04-04T18:37:34.853Z,8.90
2019-04-04T18:40:05.430Z,9.30
2019-04-04T18:42:34.080Z,8.70
2019-04-04T18:45:02.650Z,8.50
2019-04-04T18:54:55.967Z,8.50
2019-04-04T18:57:24.533Z,8.20
2019-04-04T18:59:53.078Z,8.10
2019-04-04T19:02:21.727Z,8.10
2019-04-04T19:04:50.260Z,8.10
2019-04-04T19:07:19.003Z,8.10
2019-04-04T19:12:15.922Z,8.30
2019-04-04T19:14:44.525Z,8.20
2019-04-04T19:17:13.126Z,8.00
2019-04-04T19:19:41.656Z,8.00
2019-04-04T19:22:10.292Z,8.10
2019-04-04T19:24:38.845Z,8.20
2019-04-04T19:27:07.474Z,8.30
2019-04-04T19:29:36.011Z,8.20
2019-04-04T19:32:04.734Z,8.20
2019-04-04T19:34:33.366Z,8.00
2019-04-04T19:37:01.930Z,8.20
2019-04-04T19:39:30.498Z,7.90
2019-04-04T19:41:59.110Z,7.80
2019-04-04T19:44:27.707Z,7.80
2019-04-04T19:46:56.309Z,7.80
2019-04-04T20:01:46.051Z,7.50
2019-04-04T20:04:14.613Z,7.60
2019-04-04T20:06:43.175Z,7.60
2019-04-04T20:09:11.728Z,7.60
2019-04-04T20:11:40.297Z,7.80
2019-04-04T20:16:37.145Z,7.60
2019-04-04T20:19:05.742Z,7.60
2019-04-04T20:21:34.277Z,7.60
2019-04-04T20:34:01.570Z,7.40
2019-04-04T20:36:26.074Z,7.50
2019-04-04T20:38:54.677Z,7.40
2019-04-04T20:41:23.211Z,7.40
2019-04-04T20:43:51.786Z,7.50
2019-04-04T20:53:45.088Z,7.20
2019-04-04T20:56:13.654Z,7.30
2019-04-04T21:01:10.441Z,7.30
2019-04-04T21:06:07.336Z,7.60
2019-04-04T21:08:35.860Z,7.50
2019-04-04T21:11:04.570Z,7.60
2019-04-04T21:16:01.357Z,7.50
2019-04-04T21:20:58.261Z,7.40
2019-04-04T21:23:26.870Z,7.40
2019-04-04T21:25:55.437Z,7.30
2019-04-04T21:28:24.014Z,7.30
2019-04-04T21:33:20.796Z,7.40
2019-04-04T21:38:17.591Z,7.70
2019-04-04T21:40:46.165Z,7.50
2019-04-04T21:43:14.742Z,7.30
2019-04-04T21:45:43.309Z,7.40
2019-04-04T21:50:40.131Z,7.50
2019-04-04T21:55:36.990Z,7.20
2019-04-04T21:58:05.537Z,7.10
2019-04-04T22:03:04.338Z,7.30
2019-04-04T22:05:32.978Z,7.30
2019-04-04T22:08:01.520Z,7.10
2019-04-04T22:10:30.089Z,7.10
2019-04-04T22:12:58.637Z,7.20
2019-04-04T22:15:27.213Z,7.30
2019-04-04T22:17:55.785Z,7.20
2019-04-04T22:20:24.330Z,7.10
2019-04-04T22:22:52.973Z,7.00
2019-04-04T22:25:21.543Z,7.00
2019-04-04T22:32:46.651Z,6.90
2019-04-04T22:47:36.541Z,6.80
2019-04-04T22:55:02.614Z,6.70
2019-04-04T23:02:27.728Z,6.70
2019-04-04T23:04:56.282Z,6.70
2019-04-04T23:07:24.858Z,6.60
2019-04-04T23:09:53.397Z,6.80
2019-04-04T23:17:18.462Z,6.70
2019-04-04T23:19:47.068Z,6.70
2019-04-04T23:22:15.646Z,6.60
2019-04-04T23:34:38.761Z,6.60
2019-04-04T23:37:07.372Z,6.60
2019-04-04T23:39:35.941Z,6.70
2019-04-04T23:42:04.490Z,6.70
2019-04-04T23:49:29.586Z,6.70
2019-04-04T23:51:58.125Z,6.70
2019-04-04T23:54:26.702Z,6.80
2019-04-04T23:56:55.250Z,6.70
2019-04-04T23:59:23.826Z,6.80
